KABR/ABR METAR and TAF weather

Enter ICAO airport designator
Station Type Date Time Source
KABR METAR 2020/04/09 20:53 UTC NOAA

KABR 092053Z AUTO 35017G26KT 10SM BKN046 04/M08 A3020 RMK AO2 PK WND 35030/2007 SLP238 T00441083 58001


Station Type Date Time Source
KABR Decoded METAR 2020/04/09 20:53 UTC NOAA

ABERDEEN REGIONAL AIRPORT, SD, United States (KABR) 45-27N 098-25W 400M
Apr 09, 2020 - 04:53 PM EDT / 2020.04.09 2053 UTC
Wind: from the N (350 degrees) at 20 MPH (17 KT) gusting to 30 MPH (26 KT):0
Visibility: 10 mile(s):0
Sky conditions: mostly cloudy
Temperature: 39.9 F (4.4 C)
Dew Point: 17.1 F (-8.3 C)
Relative Humidity: 39%
Pressure (altimeter): 30.2 in. Hg (1022 hPa)
Pressure tendency: 0.00 inches (0.1 hPa) lower than three hours ago
ob: KABR 092053Z AUTO 35017G26KT 10SM BKN046 04/M08 A3020 RMK AO2 PK WND 35030/2007 SLP238 T00441083 58001
cycle: 21

Station Type Date Time Source
KABR TAF 2020/04/09 18:42 UTC NOAA

TAF KABR 091738Z 0918/1018 34023G34KT P6SM BKN035
FM092300 34014G24KT P6SM SCT050
FM100200 VRB04KT P6SM SKC
FM101500 19014KT P6SM BKN250

Example: see airport list